Thunder radar more information blitzortung!


Radar de pluja more information rain snow radar


Visita la nostra xarxa de llocs de meteo:

Template documentation
and downloads

And another site



No particular awareness of the weather is required.    There are no Weather-warnings

Pagina Historial Weather Underground text

Diari Resum May 3, 2017 Unitats:  Tant    Imperial   Mètric
« Previous Dia
SegĂźent Dia »
Diari Setmana Mensual Anual Personalitzada
  Maxima: Minima: Media:
Temperatura: 61.2 °F /  16.2 °C 51.8 °F /  11.0 °C 57 °F /  13.9 °C
Punt de rosada: 55.4 °F /  13.0 °C 46.2 °F /  7.9 °C 50.9 °F /  10.5 °C
Humitat: 90 % 64 % 80 %
Wind Speed: 9.2 mph /  14.8 km/h - 3.3 mph /  5.3 km/h
RĂ fegues de vent: 9.2 mph /  14.8 km/h - -
Vent:- - East
Pression baro: 30.1 in /  1019.9 hPa 30 in /  1015.8 hPa -
Precipitacions: 0.25 in /  6.3 mm    
Historical Graphs
 
 
Dades de taula per May 3, 2017
Temps Temperatura Punt de rosada Pression baro Vent Wind Speed RĂ fegues de vent Humitat Rainfall Rate (Hourly)
11:10 58.5 °F /  14.7 °C 46.8 °F /  8.2 °C 30.1 in /  1018.8 hPa East 1 mph /  1.6 km/h 3 mph /  4.8 km/h 65 % 0 in /  0.0 mm
11:11 58.8 °F /  14.9 °C 47.1 °F /  8.4 °C 30.1 in /  1018.8 hPa NE 2.3 mph /  3.7 km/h 2.4 mph /  3.9 km/h 65 % 0 in /  0.0 mm
11:12 58.8 °F /  14.9 °C 47.1 °F /  8.4 °C 30.1 in /  1018.8 hPa ESE 2.3 mph /  3.7 km/h 2.3 mph /  3.7 km/h 65 % 0 in /  0.0 mm
11:13 58.5 °F /  14.7 °C 46.8 °F /  8.2 °C 30.1 in /  1019.9 hPa ENE 2.3 mph /  3.7 km/h 2.4 mph /  3.9 km/h 65 % 0 in /  0.0 mm
11:18 58.5 °F /  14.7 °C 46.2 °F /  7.9 °C 30.1 in /  1019.9 hPa ESE 4.6 mph /  7.4 km/h 4.6 mph /  7.4 km/h 64 % 0 in /  0.0 mm
11:23 58.5 °F /  14.7 °C 46.8 °F /  8.2 °C 30.1 in /  1019.9 hPa SE 3.5 mph /  5.6 km/h 3.6 mph /  5.8 km/h 65 % 0 in /  0.0 mm
11:28 58.6 °F /  14.8 °C 46.9 °F /  8.3 °C 30.1 in /  1018.8 hPa ESE 2.3 mph /  3.7 km/h 2.4 mph /  3.9 km/h 65 % 0 in /  0.0 mm
11:33 58.6 °F /  14.8 °C 46.9 °F /  8.3 °C 30.1 in /  1018.8 hPa SE 2.3 mph /  3.7 km/h 2.3 mph /  3.7 km/h 65 % 0 in /  0.0 mm
11:38 59 °F /  15.0 °C 47.1 °F /  8.4 °C 30.1 in /  1018.8 hPa NE 3.5 mph /  5.6 km/h 3.5 mph /  5.6 km/h 65 % 0 in /  0.0 mm
11:43 59 °F /  15.0 °C 47.1 °F /  8.4 °C 30.1 in /  1018.8 hPa SSW 3.5 mph /  5.6 km/h 3.5 mph /  5.6 km/h 65 % 0 in /  0.0 mm
11:48 60.1 °F /  15.6 °C 48.7 °F /  9.3 °C 30.1 in /  1018.8 hPa ESE 3.8 mph /  6.1 km/h 3.8 mph /  6.1 km/h 66 % 0 in /  0.0 mm
11:53 59.9 °F /  15.5 °C 48 °F /  8.9 °C 30.1 in /  1018.8 hPa SE 5.8 mph /  9.3 km/h 5.8 mph /  9.3 km/h 65 % 0 in /  0.0 mm
11:58 59.7 °F /  15.4 °C 47.8 °F /  8.8 °C 30.1 in /  1018.8 hPa SE 3.5 mph /  5.6 km/h 3.5 mph /  5.6 km/h 65 % 0 in /  0.0 mm
12:03 60.1 °F /  15.6 °C 48.4 °F /  9.1 °C 30.1 in /  1018.8 hPa ENE 6.9 mph /  11.1 km/h 6.9 mph /  11.1 km/h 65 % 0 in /  0.0 mm
12:08 60.1 °F /  15.6 °C 48.4 °F /  9.1 °C 30.1 in /  1018.8 hPa ENE 3.5 mph /  5.6 km/h 3.5 mph /  5.6 km/h 65 % 0 in /  0.0 mm
12:13 60.1 °F /  15.6 °C 48.4 °F /  9.1 °C 30.1 in /  1018.8 hPa NE 4.6 mph /  7.4 km/h 4.6 mph /  7.4 km/h 65 % 0 in /  0.0 mm
12:18 60.1 °F /  15.6 °C 47.8 °F /  8.8 °C 30.1 in /  1018.8 hPa NE 3.5 mph /  5.6 km/h 3.5 mph /  5.6 km/h 64 % 0 in /  0.0 mm
12:20 60.3 °F /  15.7 °C 48 °F /  8.9 °C 30.1 in /  1018.8 hPa ESE 6.9 mph /  11.1 km/h 6.9 mph /  11.1 km/h 64 % 0 in /  0.0 mm
12:25 60.3 °F /  15.7 °C 48 °F /  8.9 °C 30.1 in /  1018.8 hPa East 4.6 mph /  7.4 km/h 4.6 mph /  7.4 km/h 64 % 0 in /  0.0 mm
12:30 60.3 °F /  15.7 °C 48 °F /  8.9 °C 30.1 in /  1018.8 hPa NNE 4.6 mph /  7.4 km/h 4.6 mph /  7.4 km/h 64 % 0 in /  0.0 mm
12:35 60.4 °F /  15.8 °C 48.6 °F /  9.2 °C 30.1 in /  1018.8 hPa East 3.5 mph /  5.6 km/h 3.5 mph /  5.6 km/h 65 % 0 in /  0.0 mm
12:40 60.6 °F /  15.9 °C 48.4 °F /  9.1 °C 30.1 in /  1018.8 hPa NNE 4.6 mph /  7.4 km/h 4.6 mph /  7.4 km/h 64 % 0 in /  0.0 mm
12:45 60.6 °F /  15.9 °C 48.4 °F /  9.1 °C 30.1 in /  1017.8 hPa ENE 3.5 mph /  5.6 km/h 3.5 mph /  5.6 km/h 64 % 0 in /  0.0 mm
12:50 60.8 °F /  16.0 °C 48.9 °F /  9.4 °C 30.1 in /  1017.8 hPa NE 4.6 mph /  7.4 km/h 4.6 mph /  7.4 km/h 65 % 0 in /  0.0 mm
12:55 60.4 °F /  15.8 °C 48.6 °F /  9.2 °C 30.1 in /  1017.8 hPa SE 2.6 mph /  4.2 km/h 2.9 mph /  4.7 km/h 65 % 0 in /  0.0 mm
13:00 60.4 °F /  15.8 °C 48.6 °F /  9.2 °C 30.1 in /  1018.8 hPa SSE 5.8 mph /  9.3 km/h 5.8 mph /  9.3 km/h 65 % 0 in /  0.0 mm
13:05 60.1 °F /  15.6 °C 48.4 °F /  9.1 °C 30.1 in /  1018.8 hPa East 4.6 mph /  7.4 km/h 4.6 mph /  7.4 km/h 65 % 0 in /  0.0 mm
13:10 60.1 °F /  15.6 °C 48.4 °F /  9.1 °C 30.1 in /  1018.8 hPa ENE 4.6 mph /  7.4 km/h 4.6 mph /  7.4 km/h 65 % 0 in /  0.0 mm
13:15 60.1 °F /  15.6 °C 48.7 °F /  9.3 °C 30.1 in /  1018.8 hPa East 5.8 mph /  9.3 km/h 5.8 mph /  9.3 km/h 66 % 0 in /  0.0 mm
13:20 59.9 °F /  15.5 °C 48.9 °F /  9.4 °C 30.1 in /  1018.8 hPa ESE 5.8 mph /  9.3 km/h 5.8 mph /  9.3 km/h 67 % 0 in /  0.0 mm
13:25 59.7 °F /  15.4 °C 49.1 °F /  9.5 °C 30.1 in /  1018.8 hPa SE 4.6 mph /  7.4 km/h 4.6 mph /  7.4 km/h 68 % 0 in /  0.0 mm
13:30 59.5 °F /  15.3 °C 48.9 °F /  9.4 °C 30.1 in /  1018.8 hPa ENE 3.5 mph /  5.6 km/h 3.5 mph /  5.6 km/h 68 % 0 in /  0.0 mm
13:35 59.5 °F /  15.3 °C 49.5 °F /  9.7 °C 30.1 in /  1018.8 hPa East 4.6 mph /  7.4 km/h 4.6 mph /  7.4 km/h 69 % 0 in /  0.0 mm
13:40 59.4 °F /  15.2 °C 49.3 °F /  9.6 °C 30.1 in /  1018.8 hPa ESE 4.6 mph /  7.4 km/h 4.6 mph /  7.4 km/h 69 % 0 in /  0.0 mm
13:45 59.2 °F /  15.1 °C 49.5 °F /  9.7 °C 30.1 in /  1018.8 hPa East 4 mph /  6.4 km/h 4 mph /  6.4 km/h 70 % 0 in /  0.0 mm
13:50 59 °F /  15.0 °C 49.6 °F /  9.8 °C 30.1 in /  1018.8 hPa East 3.5 mph /  5.6 km/h 3.5 mph /  5.6 km/h 71 % 0 in /  0.0 mm
13:55 59 °F /  15.0 °C 50 °F /  10.0 °C 30.1 in /  1018.8 hPa ENE 3.5 mph /  5.6 km/h 3.5 mph /  5.6 km/h 72 % 0 in /  0.0 mm
14:00 58.8 °F /  14.9 °C 49.8 °F /  9.9 °C 30.1 in /  1018.8 hPa ENE 4.6 mph /  7.4 km/h 4.6 mph /  7.4 km/h 72 % 0 in /  0.0 mm
14:05 58.5 °F /  14.7 °C 50.2 °F /  10.1 °C 30.1 in /  1018.8 hPa ENE 3.5 mph /  5.6 km/h 3.5 mph /  5.6 km/h 74 % 0 in /  0.0 mm
14:10 58.1 °F /  14.5 °C 49.8 °F /  9.9 °C 30.1 in /  1018.8 hPa ENE 4.6 mph /  7.4 km/h 4.6 mph /  7.4 km/h 74 % 0 in /  0.0 mm
14:15 58.1 °F /  14.5 °C 50.9 °F /  10.5 °C 30.1 in /  1018.8 hPa ENE 2.3 mph /  3.7 km/h 2.3 mph /  3.7 km/h 77 % 0 in /  0.0 mm
14:20 57.7 °F /  14.3 °C 50.5 °F /  10.3 °C 30.1 in /  1018.8 hPa NNE 3.5 mph /  5.6 km/h 3.5 mph /  5.6 km/h 77 % 0 in /  0.0 mm
14:25 57.6 °F /  14.2 °C 50.7 °F /  10.4 °C 30.1 in /  1018.8 hPa NNE 3.5 mph /  5.6 km/h 3.5 mph /  5.6 km/h 78 % 0 in /  0.0 mm
14:30 57.2 °F /  14.0 °C 50.4 °F /  10.2 °C 30.1 in /  1018.8 hPa ENE 4.6 mph /  7.4 km/h 4.6 mph /  7.4 km/h 78 % 0 in /  0.0 mm
14:35 57 °F /  13.9 °C 50.2 °F /  10.1 °C 30.1 in /  1018.8 hPa NNW 3.5 mph /  5.6 km/h 3.5 mph /  5.6 km/h 78 % 0.04 in /  1.0 mm
14:40 56.8 °F /  13.8 °C 50.2 °F /  10.1 °C 30.1 in /  1018.8 hPa North 3.5 mph /  5.6 km/h 3.5 mph /  5.6 km/h 78 % 0.12 in /  3.0 mm
14:45 56.3 °F /  13.5 °C 49.8 °F /  9.9 °C 30.1 in /  1018.8 hPa NE 5.8 mph /  9.3 km/h 5.8 mph /  9.3 km/h 79 % 0.17 in /  4.3 mm
14:50 56.1 °F /  13.4 °C 50 °F /  10.0 °C 30.1 in /  1018.8 hPa ENE 4.6 mph /  7.4 km/h 4.6 mph /  7.4 km/h 80 % 0.17 in /  4.3 mm
14:55 56.1 °F /  13.4 °C 50.4 °F /  10.2 °C 30.1 in /  1018.8 hPa NNE 2.3 mph /  3.7 km/h 2.3 mph /  3.7 km/h 81 % 0.2 in /  5.1 mm
15:00 56.1 °F /  13.4 °C 50.4 °F /  10.2 °C 30.1 in /  1018.8 hPa ENE 3.6 mph /  5.8 km/h 3.6 mph /  5.8 km/h 81 % 0.2 in /  5.1 mm
15:05 55.9 °F /  13.3 °C 50.2 °F /  10.1 °C 30.1 in /  1018.8 hPa ENE 3.5 mph /  5.6 km/h 3.5 mph /  5.6 km/h 81 % 0.2 in /  5.1 mm
15:10 55.8 °F /  13.2 °C 50.4 °F /  10.2 °C 30.1 in /  1018.8 hPa ENE 4.6 mph /  7.4 km/h 4.6 mph /  7.4 km/h 82 % 0.2 in /  5.1 mm
15:15 55.6 °F /  13.1 °C 50.2 °F /  10.1 °C 30.1 in /  1018.8 hPa ENE 4.6 mph /  7.4 km/h 4.6 mph /  7.4 km/h 82 % 0.2 in /  5.1 mm
15:20 55.8 °F /  13.2 °C 50.7 °F /  10.4 °C 30.1 in /  1018.8 hPa ENE 2.6 mph /  4.2 km/h 2.6 mph /  4.2 km/h 83 % 0.25 in /  6.3 mm
15:25 55.9 °F /  13.3 °C 50.9 °F /  10.5 °C 30.1 in /  1018.8 hPa ENE 3.5 mph /  5.6 km/h 3.5 mph /  5.6 km/h 83 % 0.25 in /  6.3 mm
15:30 55.8 °F /  13.2 °C 50.7 °F /  10.4 °C 30.1 in /  1018.8 hPa East 3.5 mph /  5.6 km/h 3.5 mph /  5.6 km/h 83 % 0.25 in /  6.3 mm
15:35 55.9 °F /  13.3 °C 51.3 °F /  10.7 °C 30.1 in /  1018.8 hPa ESE 5.9 mph /  9.5 km/h 5.9 mph /  9.5 km/h 84 % 0.21 in /  5.3 mm
15:40 55.9 °F /  13.3 °C 51.3 °F /  10.7 °C 30.1 in /  1018.8 hPa ESE 8.1 mph /  13.0 km/h 8.1 mph /  13.0 km/h 84 % 0.13 in /  3.3 mm
15:45 56.1 °F /  13.4 °C 51.4 °F /  10.8 °C 30 in /  1016.8 hPa ESE 3.5 mph /  5.6 km/h 3.5 mph /  5.6 km/h 84 % 0.08 in /  2.0 mm
15:50 56.1 °F /  13.4 °C 51.6 °F /  10.9 °C 30 in /  1016.8 hPa ESE 4.6 mph /  7.4 km/h 4.6 mph /  7.4 km/h 85 % 0.08 in /  2.0 mm
15:55 55.9 °F /  13.3 °C 51.3 °F /  10.7 °C 30 in /  1016.8 hPa SE 5.8 mph /  9.3 km/h 5.8 mph /  9.3 km/h 84 % 0.05 in /  1.3 mm
16:00 55.9 °F /  13.3 °C 51.3 °F /  10.7 °C 30.1 in /  1017.8 hPa ESE 8.1 mph /  13.0 km/h 8.1 mph /  13.0 km/h 84 % 0.05 in /  1.3 mm
16:05 56.5 °F /  13.6 °C 51.6 °F /  10.9 °C 30.1 in /  1017.8 hPa East 5.8 mph /  9.3 km/h 5.8 mph /  9.3 km/h 84 % 0.05 in /  1.3 mm
16:10 56.7 °F /  13.7 °C 52.2 °F /  11.2 °C 30.1 in /  1017.8 hPa ENE 3.5 mph /  5.6 km/h 3.5 mph /  5.6 km/h 85 % 0.05 in /  1.3 mm
16:15 56.8 °F /  13.8 °C 52.3 °F /  11.3 °C 30.1 in /  1017.8 hPa East 5.9 mph /  9.5 km/h 5.9 mph /  9.5 km/h 85 % 0.05 in /  1.3 mm
16:20 56.7 °F /  13.7 °C 52 °F /  11.1 °C 30.1 in /  1017.8 hPa NNE 4.6 mph /  7.4 km/h 4.6 mph /  7.4 km/h 84 % 0 in /  0.0 mm
16:25 56.8 °F /  13.8 °C 52.2 °F /  11.2 °C 30.1 in /  1017.8 hPa ENE 3.5 mph /  5.6 km/h 3.5 mph /  5.6 km/h 84 % 0 in /  0.0 mm
16:30 57.2 °F /  14.0 °C 52.7 °F /  11.5 °C 30.1 in /  1017.8 hPa NNE 5.8 mph /  9.3 km/h 5.8 mph /  9.3 km/h 85 % 0 in /  0.0 mm
16:35 57.2 °F /  14.0 °C 52.3 °F /  11.3 °C 30.1 in /  1017.8 hPa NNE 3.8 mph /  6.1 km/h 3.8 mph /  6.1 km/h 84 % 0 in /  0.0 mm
16:40 57 °F /  13.9 °C 52.2 °F /  11.2 °C 30.1 in /  1017.8 hPa NNE 5.8 mph /  9.3 km/h 5.8 mph /  9.3 km/h 84 % 0 in /  0.0 mm
16:45 57.2 °F /  14.0 °C 52.7 °F /  11.5 °C 30.1 in /  1017.8 hPa NNE 4.6 mph /  7.4 km/h 4.6 mph /  7.4 km/h 85 % 0 in /  0.0 mm
16:50 57.4 °F /  14.1 °C 52.9 °F /  11.6 °C 30.1 in /  1017.8 hPa NNE 2.3 mph /  3.7 km/h 2.3 mph /  3.7 km/h 85 % 0 in /  0.0 mm
16:55 57.2 °F /  14.0 °C 52.3 °F /  11.3 °C 30.1 in /  1017.8 hPa NNE 3.5 mph /  5.6 km/h 3.5 mph /  5.6 km/h 84 % 0 in /  0.0 mm
17:00 57.2 °F /  14.0 °C 52.7 °F /  11.5 °C 30 in /  1016.8 hPa East 4.6 mph /  7.4 km/h 4.6 mph /  7.4 km/h 85 % 0 in /  0.0 mm
17:01 57.2 °F /  14.0 °C 52.7 °F /  11.5 °C 30 in /  1016.8 hPa East 4.6 mph /  7.4 km/h 4.6 mph /  7.4 km/h 85 % 0 in /  0.0 mm
17:06 57.4 °F /  14.1 °C 52.9 °F /  11.6 °C 30 in /  1016.8 hPa East 3.5 mph /  5.6 km/h 3.5 mph /  5.6 km/h 85 % 0 in /  0.0 mm
17:11 57.4 °F /  14.1 °C 52.5 °F /  11.4 °C 30 in /  1016.8 hPa ENE 3.5 mph /  5.6 km/h 3.5 mph /  5.6 km/h 84 % 0 in /  0.0 mm
17:16 57.6 °F /  14.2 °C 53.1 °F /  11.7 °C 30.1 in /  1017.8 hPa ENE 4.6 mph /  7.4 km/h 4.6 mph /  7.4 km/h 85 % 0 in /  0.0 mm
17:21 57.7 °F /  14.3 °C 52.9 °F /  11.6 °C 30.1 in /  1017.8 hPa SSE 3.5 mph /  5.6 km/h 3.5 mph /  5.6 km/h 84 % 0 in /  0.0 mm
17:26 58.1 °F /  14.5 °C 53.2 °F /  11.8 °C 30.1 in /  1017.8 hPa ESE 2.2 mph /  3.5 km/h 2.2 mph /  3.5 km/h 84 % 0 in /  0.0 mm
17:31 58.3 °F /  14.6 °C 53.4 °F /  11.9 °C 30.1 in /  1017.8 hPa ENE 3.6 mph /  5.8 km/h 3.6 mph /  5.8 km/h 84 % 0 in /  0.0 mm
17:36 58.5 °F /  14.7 °C 53.6 °F /  12.0 °C 30.1 in /  1017.8 hPa ESE 2.3 mph /  3.7 km/h 2.3 mph /  3.7 km/h 84 % 0 in /  0.0 mm
17:41 59.2 °F /  15.1 °C 54.7 °F /  12.6 °C 30.1 in /  1017.8 hPa ESE 3.1 mph /  5.0 km/h 3.1 mph /  5.0 km/h 85 % 0 in /  0.0 mm
17:46 59.4 °F /  15.2 °C 54.5 °F /  12.5 °C 30.1 in /  1017.8 hPa ESE 3.5 mph /  5.6 km/h 3.5 mph /  5.6 km/h 84 % 0 in /  0.0 mm
17:51 60.1 °F /  15.6 °C 54.9 °F /  12.7 °C 30.1 in /  1017.8 hPa SSE 2.3 mph /  3.7 km/h 2.3 mph /  3.7 km/h 83 % 0 in /  0.0 mm
17:56 60.6 °F /  15.9 °C 55.4 °F /  13.0 °C 30.1 in /  1017.8 hPa South 4.6 mph /  7.4 km/h 4.6 mph /  7.4 km/h 83 % 0 in /  0.0 mm
18:01 61 °F /  16.1 °C 55 °F /  12.8 °C 30 in /  1016.8 hPa South 2.3 mph /  3.7 km/h 2.3 mph /  3.7 km/h 81 % 0 in /  0.0 mm
18:06 60.8 °F /  16.0 °C 54.9 °F /  12.7 °C 30 in /  1016.8 hPa SSE 3.5 mph /  5.6 km/h 3.5 mph /  5.6 km/h 81 % 0 in /  0.0 mm
18:11 60.8 °F /  16.0 °C 54.9 °F /  12.7 °C 30 in /  1016.8 hPa SSW 3.5 mph /  5.6 km/h 3.5 mph /  5.6 km/h 81 % 0 in /  0.0 mm
18:16 60.6 °F /  15.9 °C 54.9 °F /  12.7 °C 30 in /  1016.8 hPa ESE 3.5 mph /  5.6 km/h 3.5 mph /  5.6 km/h 81 % 0 in /  0.0 mm
18:18 60.4 °F /  15.8 °C 54.7 °F /  12.6 °C 30 in /  1016.8 hPa ESE 4.6 mph /  7.4 km/h 4.6 mph /  7.4 km/h 81 % 0 in /  0.0 mm
18:21 60.4 °F /  15.8 °C 54.7 °F /  12.6 °C 30 in /  1016.8 hPa East 2.3 mph /  3.7 km/h 2.3 mph /  3.7 km/h 81 % 0 in /  0.0 mm
18:26 61 °F /  16.1 °C 55 °F /  12.8 °C 30 in /  1016.8 hPa SSE 3.1 mph /  5.0 km/h 3.1 mph /  5.0 km/h 81 % 0 in /  0.0 mm
18:31 61.2 °F /  16.2 °C 54.9 °F /  12.7 °C 30 in /  1016.8 hPa SSE 3.5 mph /  5.6 km/h 3.5 mph /  5.6 km/h 80 % 0 in /  0.0 mm
18:36 60.4 °F /  15.8 °C 54.1 °F /  12.3 °C 30 in /  1016.8 hPa ENE 5.8 mph /  9.3 km/h 5.8 mph /  9.3 km/h 80 % 0 in /  0.0 mm
18:41 60.1 °F /  15.6 °C 54.1 °F /  12.3 °C 30 in /  1016.8 hPa ESE 4.6 mph /  7.4 km/h 4.6 mph /  7.4 km/h 81 % 0 in /  0.0 mm
18:46 59.7 °F /  15.4 °C 54 °F /  12.2 °C 30 in /  1016.8 hPa ESE 5.8 mph /  9.3 km/h 5.8 mph /  9.3 km/h 81 % 0 in /  0.0 mm
18:51 59.5 °F /  15.3 °C 54 °F /  12.2 °C 30 in /  1016.8 hPa ESE 3.8 mph /  6.1 km/h 3.8 mph /  6.1 km/h 82 % 0 in /  0.0 mm
18:56 59.5 °F /  15.3 °C 54 °F /  12.2 °C 30 in /  1016.8 hPa ESE 4.7 mph /  7.6 km/h 4.7 mph /  7.6 km/h 82 % 0 in /  0.0 mm
19:01 59.4 °F /  15.2 °C 54 °F /  12.2 °C 30 in /  1015.8 hPa NE 4.6 mph /  7.4 km/h 4.6 mph /  7.4 km/h 82 % 0 in /  0.0 mm
19:06 59.5 °F /  15.3 °C 54 °F /  12.2 °C 30 in /  1015.8 hPa ESE 5.8 mph /  9.3 km/h 5.8 mph /  9.3 km/h 82 % 0 in /  0.0 mm
19:11 59.5 °F /  15.3 °C 53.8 °F /  12.1 °C 30 in /  1015.8 hPa ESE 4.6 mph /  7.4 km/h 4.6 mph /  7.4 km/h 81 % 0 in /  0.0 mm
19:16 59.7 °F /  15.4 °C 54 °F /  12.2 °C 30 in /  1015.8 hPa ENE 4.6 mph /  7.4 km/h 4.6 mph /  7.4 km/h 81 % 0 in /  0.0 mm
19:20 54 °F /  12.2 °C 49.8 °F /  9.9 °C 30.1 in /  1017.8 hPa Calm     86 % 0 in /  0.0 mm
19:21 59.5 °F /  15.3 °C 53.8 °F /  12.1 °C 30 in /  1015.8 hPa ESE 7.4 mph /  11.9 km/h 7.4 mph /  11.9 km/h 81 % 0 in /  0.0 mm
19:26 59.4 °F /  15.2 °C 54 °F /  12.2 °C 30 in /  1015.8 hPa ESE 4.6 mph /  7.4 km/h 4.6 mph /  7.4 km/h 82 % 0 in /  0.0 mm
19:30 54 °F /  12.2 °C 50.2 °F /  10.1 °C 30.1 in /  1017.8 hPa Calm   1 mph /  1.6 km/h 87 % 0 in /  0.0 mm
19:31 59.4 °F /  15.2 °C 54 °F /  12.2 °C 30 in /  1015.8 hPa NNE 4.6 mph /  7.4 km/h 4.6 mph /  7.4 km/h 82 % 0 in /  0.0 mm
19:36 59.2 °F /  15.1 °C 53.4 °F /  11.9 °C 30 in /  1015.8 hPa ESE 5.8 mph /  9.3 km/h 5.8 mph /  9.3 km/h 81 % 0 in /  0.0 mm
19:40 53.8 °F /  12.1 °C 50 °F /  10.0 °C 30.1 in /  1017.8 hPa NE 1 mph /  1.6 km/h 2 mph /  3.2 km/h 87 % 0 in /  0.0 mm
19:41 59.4 °F /  15.2 °C 53.4 °F /  11.9 °C 30 in /  1015.8 hPa SSE 3.1 mph /  5.0 km/h 3.1 mph /  5.0 km/h 81 % 0 in /  0.0 mm
19:46 59.4 °F /  15.2 °C 53.2 °F /  11.8 °C 30 in /  1015.8 hPa ENE 5.6 mph /  9.0 km/h 5.6 mph /  9.0 km/h 80 % 0 in /  0.0 mm
19:50 53.6 °F /  12.0 °C 49.8 °F /  9.9 °C 30.1 in /  1017.8 hPa Calm     87 % 0 in /  0.0 mm
19:51 59.5 °F /  15.3 °C 53.4 °F /  11.9 °C 30 in /  1015.8 hPa NE 5.8 mph /  9.3 km/h 5.8 mph /  9.3 km/h 80 % 0 in /  0.0 mm
19:56 59.4 °F /  15.2 °C 52.9 °F /  11.6 °C 30 in /  1015.8 hPa SE 6 mph /  9.7 km/h 6 mph /  9.7 km/h 79 % 0 in /  0.0 mm
20:00 53.4 °F /  11.9 °C 49.6 °F /  9.8 °C 30.1 in /  1017.8 hPa Calm     87 % 0 in /  0.0 mm
20:01 59.2 °F /  15.1 °C 52.7 °F /  11.5 °C 30 in /  1015.8 hPa ENE 4.6 mph /  7.4 km/h 4.6 mph /  7.4 km/h 79 % 0 in /  0.0 mm
20:06 58.8 °F /  14.9 °C 52.3 °F /  11.3 °C 30 in /  1015.8 hPa ENE 8.1 mph /  13.0 km/h 8.1 mph /  13.0 km/h 79 % 0 in /  0.0 mm
20:10 53.2 °F /  11.8 °C 49.5 °F /  9.7 °C 30.1 in /  1017.8 hPa Calm   1 mph /  1.6 km/h 87 % 0 in /  0.0 mm
20:11 58.6 °F /  14.8 °C 52.5 °F /  11.4 °C 30 in /  1015.8 hPa ESE 9.2 mph /  14.8 km/h 9.2 mph /  14.8 km/h 80 % 0 in /  0.0 mm
20:16 58.5 °F /  14.7 °C 52.3 °F /  11.3 °C 30 in /  1015.8 hPa NE 9.2 mph /  14.8 km/h 9.2 mph /  14.8 km/h 80 % 0 in /  0.0 mm
20:20 53.4 °F /  11.9 °C 50 °F /  10.0 °C 30.1 in /  1017.8 hPa Calm     88 % 0 in /  0.0 mm
20:21 58.3 °F /  14.6 °C 52.5 °F /  11.4 °C 30 in /  1015.8 hPa ENE 6.9 mph /  11.1 km/h 6.9 mph /  11.1 km/h 81 % 0 in /  0.0 mm
20:26 58.3 °F /  14.6 °C 52.9 °F /  11.6 °C 30 in /  1015.8 hPa ENE 6.9 mph /  11.1 km/h 6.9 mph /  11.1 km/h 82 % 0 in /  0.0 mm
20:29 58.1 °F /  14.5 °C 52.5 °F /  11.4 °C 30 in /  1016.8 hPa ENE 3.5 mph /  5.6 km/h 3.5 mph /  5.6 km/h 82 % 0 in /  0.0 mm
20:30 53.2 °F /  11.8 °C 49.8 °F /  9.9 °C 30.1 in /  1017.8 hPa Calm     88 % 0 in /  0.0 mm
20:31 58.1 °F /  14.5 °C 52.3 °F /  11.3 °C 30 in /  1016.8 hPa ESE 5.8 mph /  9.3 km/h 5.8 mph /  9.3 km/h 81 % 0 in /  0.0 mm
20:36 57.9 °F /  14.4 °C 52.5 °F /  11.4 °C 30 in /  1016.8 hPa ENE 4 mph /  6.4 km/h 4 mph /  6.4 km/h 82 % 0 in /  0.0 mm
20:40 53.1 °F /  11.7 °C 49.6 °F /  9.8 °C 30.1 in /  1017.8 hPa Calm     88 % 0 in /  0.0 mm
20:41 57.7 °F /  14.3 °C 52.3 °F /  11.3 °C 30 in /  1016.8 hPa East 5.8 mph /  9.3 km/h 5.8 mph /  9.3 km/h 82 % 0 in /  0.0 mm
20:46 57.7 °F /  14.3 °C 52.3 °F /  11.3 °C 30 in /  1016.8 hPa ESE 4.3 mph /  6.9 km/h 4.3 mph /  6.9 km/h 82 % 0 in /  0.0 mm
20:50 52.9 °F /  11.6 °C 49.5 °F /  9.7 °C 30.1 in /  1017.8 hPa Calm     88 % 0 in /  0.0 mm
20:51 57.6 °F /  14.2 °C 52.2 °F /  11.2 °C 30 in /  1016.8 hPa NNE 4.6 mph /  7.4 km/h 4.6 mph /  7.4 km/h 82 % 0 in /  0.0 mm
20:56 57.4 °F /  14.1 °C 52 °F /  11.1 °C 30 in /  1016.8 hPa SE 5.8 mph /  9.3 km/h 5.8 mph /  9.3 km/h 82 % 0 in /  0.0 mm
21:00 52.9 °F /  11.6 °C 49.5 °F /  9.7 °C 30.1 in /  1017.8 hPa Calm     88 % 0 in /  0.0 mm
21:01 57.4 °F /  14.1 °C 52 °F /  11.1 °C 30 in /  1016.8 hPa ESE 3.6 mph /  5.8 km/h 3.6 mph /  5.8 km/h 82 % 0 in /  0.0 mm
21:06 57.2 °F /  14.0 °C 51.8 °F /  11.0 °C 30 in /  1016.8 hPa ESE 4.6 mph /  7.4 km/h 4.6 mph /  7.4 km/h 82 % 0 in /  0.0 mm
21:10 52.5 °F /  11.4 °C 49.1 °F /  9.5 °C 30.1 in /  1017.8 hPa Calm     88 % 0 in /  0.0 mm
21:11 57 °F /  13.9 °C 51.6 °F /  10.9 °C 30 in /  1016.8 hPa ESE 4.6 mph /  7.4 km/h 4.6 mph /  7.4 km/h 82 % 0 in /  0.0 mm
21:16 56.8 °F /  13.8 °C 51.4 °F /  10.8 °C 30 in /  1016.8 hPa ESE 3.5 mph /  5.6 km/h 3.5 mph /  5.6 km/h 82 % 0 in /  0.0 mm
21:20 52.7 °F /  11.5 °C 49.3 °F /  9.6 °C 30.1 in /  1017.8 hPa Calm     88 % 0 in /  0.0 mm
21:21 56.7 °F /  13.7 °C 51.3 °F /  10.7 °C 30 in /  1016.8 hPa ENE 3.5 mph /  5.6 km/h 3.5 mph /  5.6 km/h 82 % 0 in /  0.0 mm
21:26 56.5 °F /  13.6 °C 51.1 °F /  10.6 °C 30 in /  1016.8 hPa ENE 4.6 mph /  7.4 km/h 4.6 mph /  7.4 km/h 82 % 0 in /  0.0 mm
21:30 52.7 °F /  11.5 °C 49.5 °F /  9.7 °C 30.1 in /  1017.8 hPa Calm     89 % 0 in /  0.0 mm
21:31 56.3 °F /  13.5 °C 50.9 °F /  10.5 °C 30 in /  1016.8 hPa NE 2.3 mph /  3.7 km/h 2.3 mph /  3.7 km/h 82 % 0 in /  0.0 mm
21:36 56.1 °F /  13.4 °C 50.7 °F /  10.4 °C 30 in /  1016.8 hPa NE 2.3 mph /  3.7 km/h 2.3 mph /  3.7 km/h 82 % 0 in /  0.0 mm
21:40 52.7 °F /  11.5 °C 49.5 °F /  9.7 °C 30 in /  1016.8 hPa Calm     89 % 0 in /  0.0 mm
21:41 56.1 °F /  13.4 °C 50.7 °F /  10.4 °C 30 in /  1016.8 hPa ESE 3.5 mph /  5.6 km/h 3.5 mph /  5.6 km/h 82 % 0 in /  0.0 mm
21:46 55.9 °F /  13.3 °C 50.5 °F /  10.3 °C 30 in /  1016.8 hPa ENE 2.3 mph /  3.7 km/h 2.3 mph /  3.7 km/h 82 % 0 in /  0.0 mm
21:49 55.9 °F /  13.3 °C 50.9 °F /  10.5 °C 30 in /  1016.8 hPa ESE 3.5 mph /  5.6 km/h 3.5 mph /  5.6 km/h 83 % 0 in /  0.0 mm
21:50 55.9 °F /  13.3 °C 50.9 °F /  10.5 °C 30 in /  1016.8 hPa ENE 1.4 mph /  2.3 km/h 1.4 mph /  2.3 km/h 83 % 0 in /  0.0 mm
21:52 55.9 °F /  13.3 °C 50.5 °F /  10.3 °C 30 in /  1016.8 hPa East 2.3 mph /  3.7 km/h 2.3 mph /  3.7 km/h 82 % 0 in /  0.0 mm
21:57 55.8 °F /  13.2 °C 50.7 °F /  10.4 °C 30 in /  1016.8 hPa ENE 4.6 mph /  7.4 km/h 4.6 mph /  7.4 km/h 83 % 0 in /  0.0 mm
22:00 52.5 °F /  11.4 °C 49.5 °F /  9.7 °C 30 in /  1016.8 hPa Calm     89 % 0 in /  0.0 mm
22:02 55.8 °F /  13.2 °C 50.7 °F /  10.4 °C 30.1 in /  1017.8 hPa SE 4.6 mph /  7.4 km/h 4.6 mph /  7.4 km/h 83 % 0 in /  0.0 mm
22:07 55.6 °F /  13.1 °C 50.5 °F /  10.3 °C 30.1 in /  1017.8 hPa ENE 3.5 mph /  5.6 km/h 3.5 mph /  5.6 km/h 83 % 0 in /  0.0 mm
22:10 52.5 °F /  11.4 °C 49.5 °F /  9.7 °C 30 in /  1016.8 hPa Calm     89 % 0 in /  0.0 mm
22:12 55.6 °F /  13.1 °C 50.5 °F /  10.3 °C 30.1 in /  1017.8 hPa ESE 3.5 mph /  5.6 km/h 3.5 mph /  5.6 km/h 83 % 0 in /  0.0 mm
22:17 55.4 °F /  13.0 °C 50.4 °F /  10.2 °C 30.1 in /  1017.8 hPa East 3.3 mph /  5.3 km/h 3.3 mph /  5.3 km/h 83 % 0 in /  0.0 mm
22:20 52.3 °F /  11.3 °C 49.3 °F /  9.6 °C 30 in /  1015.8 hPa Calm     89 % 0 in /  0.0 mm
22:22 55.2 °F /  12.9 °C 50.2 °F /  10.1 °C 30.1 in /  1017.8 hPa ENE 2.2 mph /  3.5 km/h   83 % 0 in /  0.0 mm
22:27 55 °F /  12.8 °C 50.4 °F /  10.2 °C 30.1 in /  1017.8 hPa Calm     84 % 0 in /  0.0 mm
22:30 52.3 °F /  11.3 °C 49.5 °F /  9.7 °C 30 in /  1015.8 hPa Calm     90 % 0 in /  0.0 mm
22:32 55 °F /  12.8 °C 50.4 °F /  10.2 °C 30.1 in /  1017.8 hPa ENE 1.4 mph /  2.3 km/h   84 % 0 in /  0.0 mm
22:37 54.9 °F /  12.7 °C 50.2 °F /  10.1 °C 30.1 in /  1017.8 hPa East 2.3 mph /  3.7 km/h 2.3 mph /  3.7 km/h 84 % 0 in /  0.0 mm
22:40 52.3 °F /  11.3 °C 49.5 °F /  9.7 °C 30 in /  1015.8 hPa Calm     90 % 0 in /  0.0 mm
22:42 54.9 °F /  12.7 °C 50.2 °F /  10.1 °C 30.1 in /  1017.8 hPa East 0.9 mph /  1.4 km/h   84 % 0 in /  0.0 mm
22:47 54.7 °F /  12.6 °C 49.8 °F /  9.9 °C 30.1 in /  1017.8 hPa East 1.2 mph /  1.9 km/h 1.2 mph /  1.9 km/h 84 % 0 in /  0.0 mm
22:50 52.3 °F /  11.3 °C 49.5 °F /  9.7 °C 30 in /  1015.8 hPa Calm   1 mph /  1.6 km/h 90 % 0 in /  0.0 mm
22:52 54.7 °F /  12.6 °C 49.8 °F /  9.9 °C 30.1 in /  1017.8 hPa Calm     84 % 0 in /  0.0 mm
22:57 54.7 °F /  12.6 °C 49.8 °F /  9.9 °C 30.1 in /  1017.8 hPa NNE 2.3 mph /  3.7 km/h 2.3 mph /  3.7 km/h 84 % 0 in /  0.0 mm
23:00 52.2 °F /  11.2 °C 49.3 °F /  9.6 °C 30 in /  1015.8 hPa Calm     90 % 0 in /  0.0 mm
23:02 54.5 °F /  12.5 °C 49.8 °F /  9.9 °C 30.1 in /  1017.8 hPa Calm     84 % 0 in /  0.0 mm
23:07 54.5 °F /  12.5 °C 49.8 °F /  9.9 °C 30.1 in /  1017.8 hPa Calm     84 % 0 in /  0.0 mm
23:12 54.3 °F /  12.4 °C 49.6 °F /  9.8 °C 30.1 in /  1017.8 hPa Calm     84 % 0 in /  0.0 mm
23:17 54.3 °F /  12.4 °C 49.6 °F /  9.8 °C 30.1 in /  1017.8 hPa Calm     84 % 0 in /  0.0 mm
23:20 51.8 °F /  11.0 °C 48.7 °F /  9.3 °C 30 in /  1015.8 hPa Calm   2 mph /  3.2 km/h 89 % 0 in /  0.0 mm
23:22 54.3 °F /  12.4 °C 49.8 °F /  9.9 °C 30.1 in /  1017.8 hPa Calm     85 % 0 in /  0.0 mm
23:27 54.3 °F /  12.4 °C 49.8 °F /  9.9 °C 30.1 in /  1017.8 hPa NNW 1.2 mph /  1.9 km/h   85 % 0 in /  0.0 mm
23:30 51.8 °F /  11.0 °C 48.7 °F /  9.3 °C 30 in /  1015.8 hPa SW 1 mph /  1.6 km/h 2 mph /  3.2 km/h 89 % 0 in /  0.0 mm
23:32 54.3 °F /  12.4 °C 49.8 °F /  9.9 °C 30.1 in /  1017.8 hPa Calm     85 % 0 in /  0.0 mm
23:37 54.1 °F /  12.3 °C 49.5 °F /  9.7 °C 30.1 in /  1017.8 hPa Calm     84 % 0 in /  0.0 mm
23:40 52 °F /  11.1 °C 49.1 °F /  9.5 °C 30 in /  1015.8 hPa Calm   1 mph /  1.6 km/h 90 % 0 in /  0.0 mm
23:42 54.1 °F /  12.3 °C 49.6 °F /  9.8 °C 30.1 in /  1017.8 hPa Calm     85 % 0 in /  0.0 mm
23:47 54.3 °F /  12.4 °C 49.8 °F /  9.9 °C 30.1 in /  1017.8 hPa NE 2.3 mph /  3.7 km/h 2.3 mph /  3.7 km/h 85 % 0 in /  0.0 mm
23:50 52 °F /  11.1 °C 49.1 °F /  9.5 °C 30 in /  1015.8 hPa Calm     90 % 0 in /  0.0 mm
23:52 54.1 °F /  12.3 °C 50 °F /  10.0 °C 30.1 in /  1017.8 hPa Calm     86 % 0 in /  0.0 mm
23:57 54.1 °F /  12.3 °C 50 °F /  10.0 °C 30.1 in /  1017.8 hPa NNE 0.9 mph /  1.4 km/h   86 % 0 in /  0.0 mm
Meteo Sesrovires
Elogis d' Weather Underground - 3.5 mb

Guio original per  Jim McMurry - jmcmurry@mwt.net Adaptat per a la plantilla per  Wim van der Kuil - Leuven-Template.eu

Trobareu la nostra informacio del temps tambe a:

Weather Underground

AWEKAS